createdAt,value
2023-10-06T00:01:44.148Z,11.98
2023-10-06T00:04:16.529Z,13.20
2023-10-06T00:06:44.413Z,14.25
2023-10-06T00:09:22.573Z,13.68
2023-10-06T00:11:51.680Z,15.27
2023-10-06T00:14:40.299Z,14.13
2023-10-06T00:17:17.182Z,12.10
2023-10-06T00:19:45.214Z,16.05
2023-10-06T00:22:15.584Z,15.40
2023-10-06T00:24:44.192Z,13.20
2023-10-06T00:27:12.714Z,15.02
2023-10-06T00:29:44.993Z,12.35
2023-10-06T00:32:24.463Z,13.23
2023-10-06T00:34:55.716Z,13.02
2023-10-06T00:37:25.927Z,16.27
2023-10-06T00:39:57.523Z,12.38
2023-10-06T00:42:24.785Z,15.85
2023-10-06T00:44:54.813Z,13.77
2023-10-06T00:47:22.791Z,12.77
2023-10-06T00:49:55.904Z,13.20
2023-10-06T00:52:23.176Z,10.43
2023-10-06T00:54:51.199Z,12.90
2023-10-06T00:57:20.689Z,12.45
2023-10-06T00:59:47.985Z,15.80
2023-10-06T01:02:17.353Z,14.20
2023-10-06T01:04:46.767Z,17.10
2023-10-06T01:07:15.034Z,13.55
2023-10-06T01:09:58.968Z,14.40
2023-10-06T01:12:27.374Z,14.73
2023-10-06T01:15:14.695Z,15.30
2023-10-06T01:17:42.379Z,14.02
2023-10-06T01:20:11.999Z,10.85
2023-10-06T01:22:45.579Z,11.82
2023-10-06T01:25:22.333Z,15.38
2023-10-06T01:27:51.693Z,12.70
2023-10-06T01:30:20.504Z,12.68
2023-10-06T01:32:52.363Z,18.20
2023-10-06T01:35:24.997Z,14.55
2023-10-06T01:37:58.646Z,11.52
2023-10-06T01:40:25.932Z,12.30
2023-10-06T01:42:53.731Z,13.60
2023-10-06T01:45:23.984Z,10.93
2023-10-06T01:47:58.314Z,14.00
2023-10-06T01:50:28.684Z,13.52
2023-10-06T01:52:59.991Z,14.07
2023-10-06T01:55:27.317Z,13.23
2023-10-06T01:57:55.573Z,13.65
2023-10-06T02:00:28.168Z,11.93
2023-10-06T02:02:55.446Z,11.00
2023-10-06T02:05:22.879Z,13.25
2023-10-06T02:07:50.337Z,11.27
2023-10-06T02:10:19.758Z,14.13
2023-10-06T02:12:47.081Z,10.98
2023-10-06T02:15:14.436Z,20.05
2023-10-06T02:17:42.478Z,16.55
2023-10-06T02:20:29.999Z,12.75
2023-10-06T02:23:02.006Z,15.02
2023-10-06T02:25:29.873Z,12.38
2023-10-06T02:28:01.034Z,13.18
2023-10-06T02:30:42.672Z,16.53
2023-10-06T02:33:12.517Z,15.15
2023-10-06T02:35:47.370Z,15.77
2023-10-06T02:38:16.556Z,13.23
2023-10-06T02:40:46.982Z,12.13
2023-10-06T02:43:17.700Z,13.63
2023-10-06T02:45:45.882Z,13.45
2023-10-06T02:48:17.195Z,14.90
2023-10-06T02:50:47.940Z,17.42
2023-10-06T02:53:15.792Z,18.00
2023-10-06T02:55:46.550Z,15.60
2023-10-06T02:58:32.095Z,13.10
2023-10-06T03:00:59.611Z,12.20
2023-10-06T03:03:30.796Z,15.20
2023-10-06T03:05:59.459Z,13.70
2023-10-06T03:08:29.552Z,14.02
2023-10-06T03:10:57.360Z,14.82
2023-10-06T03:13:37.946Z,12.82
2023-10-06T03:16:11.740Z,16.58
2023-10-06T03:18:40.644Z,15.77
2023-10-06T03:21:31.265Z,16.20
2023-10-06T03:24:06.638Z,19.55
2023-10-06T03:26:39.954Z,14.13
2023-10-06T03:29:12.871Z,17.40
2023-10-06T03:31:46.468Z,15.70
2023-10-06T03:34:23.991Z,14.63
2023-10-06T03:36:54.673Z,16.35
2023-10-06T03:42:07.373Z,18.10
2023-10-06T03:44:35.983Z,14.20
2023-10-06T03:47:08.982Z,17.55
2023-10-06T03:49:36.671Z,17.73
2023-10-06T03:52:10.685Z,12.70
2023-10-06T03:54:38.426Z,15.27
2023-10-06T03:57:05.738Z,16.27
2023-10-06T03:59:33.806Z,17.10
2023-10-06T04:02:04.236Z,14.68
2023-10-06T04:04:31.933Z,14.73
2023-10-06T04:06:59.795Z,12.35
2023-10-06T04:09:30.340Z,16.80
2023-10-06T04:12:02.806Z,16.10
2023-10-06T04:14:33.030Z,16.42
2023-10-06T04:17:02.546Z,13.52
2023-10-06T04:19:30.448Z,12.77
2023-10-06T04:21:57.708Z,14.23
2023-10-06T04:24:25.017Z,15.32
2023-10-06T04:26:53.219Z,13.32
2023-10-06T04:29:20.665Z,15.15
2023-10-06T04:31:47.904Z,22.30
2023-10-06T04:34:15.581Z,14.43
2023-10-06T04:36:44.385Z,16.50
2023-10-06T04:39:12.740Z,18.65
2023-10-06T04:41:42.522Z,13.90
2023-10-06T04:44:11.466Z,20.55
2023-10-06T04:46:38.928Z,14.73
2023-10-06T04:49:08.837Z,16.77
2023-10-06T04:51:36.334Z,16.65
2023-10-06T04:54:04.243Z,17.65
2023-10-06T04:56:33.914Z,15.30
2023-10-06T04:59:01.591Z,15.85
2023-10-06T05:01:32.418Z,17.90
2023-10-06T05:04:00.484Z,15.52
2023-10-06T05:06:27.710Z,17.98
2023-10-06T05:08:55.817Z,20.70
2023-10-06T05:11:24.867Z,19.40
2023-10-06T05:13:55.619Z,16.38
2023-10-06T05:16:24.927Z,21.13
2023-10-06T05:18:53.004Z,16.52
2023-10-06T05:21:21.659Z,28.05
2023-10-06T05:23:49.349Z,18.38
2023-10-06T05:26:17.470Z,18.83
2023-10-06T05:28:46.008Z,16.50
2023-10-06T05:31:13.864Z,17.45
2023-10-06T05:33:42.382Z,32.25
2023-10-06T05:36:15.755Z,22.13
2023-10-06T05:38:46.814Z,20.33
2023-10-06T05:41:14.693Z,18.35
2023-10-06T05:43:42.997Z,20.15
2023-10-06T05:46:11.405Z,26.77
2023-10-06T05:48:40.176Z,17.10
2023-10-06T05:51:11.070Z,18.08
2023-10-06T05:53:45.301Z,15.65
2023-10-06T05:56:13.490Z,21.05
2023-10-06T05:58:42.403Z,18.20
2023-10-06T06:01:20.368Z,16.08
2023-10-06T06:03:48.745Z,21.08
2023-10-06T06:06:17.708Z,16.27
2023-10-06T06:08:48.966Z,17.30
2023-10-06T06:11:17.687Z,16.17
2023-10-06T06:13:52.916Z,24.95
2023-10-06T06:16:23.413Z,19.17
2023-10-06T06:18:52.086Z,16.90
2023-10-06T06:21:26.147Z,19.05
2023-10-06T06:23:58.464Z,16.58
2023-10-06T06:26:26.348Z,17.15
2023-10-06T06:28:54.755Z,20.27
2023-10-06T06:31:22.617Z,17.85
2023-10-06T06:33:57.780Z,20.20
2023-10-06T06:36:27.720Z,20.88
2023-10-06T06:38:55.564Z,19.88
2023-10-06T06:41:22.965Z,20.35
2023-10-06T06:43:50.888Z,18.90
2023-10-06T06:46:18.555Z,20.08
2023-10-06T06:48:48.112Z,14.43
2023-10-06T06:51:15.399Z,16.80
2023-10-06T06:53:42.685Z,20.98
2023-10-06T06:56:12.291Z,19.05
2023-10-06T06:58:40.425Z,18.70
2023-10-06T07:01:16.243Z,22.38
2023-10-06T07:03:44.022Z,17.08
2023-10-06T07:06:18.348Z,23.50
2023-10-06T07:08:48.547Z,20.65
2023-10-06T07:11:17.367Z,21.13
2023-10-06T07:13:46.945Z,22.52
2023-10-06T07:16:15.814Z,17.52
2023-10-06T07:18:43.540Z,21.98
2023-10-06T07:21:12.539Z,20.90
2023-10-06T07:23:40.050Z,21.50
2023-10-06T07:26:14.905Z,19.75
2023-10-06T07:28:42.416Z,20.27
2023-10-06T07:31:14.794Z,20.20
2023-10-06T07:36:18.901Z,18.48
2023-10-06T07:38:47.301Z,21.83
2023-10-06T07:41:24.825Z,16.70
2023-10-06T07:43:53.228Z,21.13
2023-10-06T07:46:20.583Z,24.13
2023-10-06T07:48:48.191Z,24.15
2023-10-06T07:51:15.608Z,18.17
2023-10-06T07:53:44.537Z,26.65
2023-10-06T07:56:13.038Z,20.13
2023-10-06T07:58:44.788Z,18.55
2023-10-06T08:01:14.853Z,19.65
2023-10-06T08:03:42.933Z,21.73
2023-10-06T08:06:12.276Z,25.67
2023-10-06T08:08:39.764Z,20.80
2023-10-06T08:11:07.849Z,20.35
2023-10-06T08:13:35.719Z,21.75
2023-10-06T08:16:04.027Z,21.20
2023-10-06T08:18:31.711Z,20.33
2023-10-06T08:21:02.257Z,22.13
2023-10-06T08:23:33.741Z,25.02
2023-10-06T08:26:02.618Z,20.63
2023-10-06T08:28:33.063Z,21.60
2023-10-06T08:31:03.931Z,17.13
2023-10-06T08:33:31.817Z,26.77
2023-10-06T08:36:01.870Z,20.75
2023-10-06T08:38:29.992Z,24.80
2023-10-06T08:41:01.947Z,25.02
2023-10-06T08:43:29.352Z,20.23
2023-10-06T08:46:01.307Z,22.20
2023-10-06T08:48:37.481Z,24.15
2023-10-06T08:51:09.128Z,21.65
2023-10-06T08:53:42.033Z,20.52
2023-10-06T08:56:09.547Z,21.60
2023-10-06T08:58:37.372Z,20.15
2023-10-06T09:01:07.712Z,16.17
2023-10-06T09:03:36.086Z,24.95
2023-10-06T09:06:04.568Z,22.13
2023-10-06T09:08:40.969Z,26.70
2023-10-06T09:11:08.303Z,19.33
2023-10-06T09:13:35.541Z,19.33
2023-10-06T09:16:04.732Z,20.33
2023-10-06T09:18:35.897Z,18.73
2023-10-06T09:21:13.692Z,17.63
2023-10-06T09:23:44.056Z,16.58
2023-10-06T09:26:17.323Z,18.40
2023-10-06T09:28:53.569Z,17.15
2023-10-06T09:31:38.179Z,17.50
2023-10-06T09:34:10.556Z,15.30
2023-10-06T09:36:46.158Z,15.27
2023-10-06T09:39:26.172Z,14.95
2023-10-06T09:41:55.456Z,15.48
2023-10-06T09:44:24.581Z,15.32
2023-10-06T09:46:54.996Z,13.63
2023-10-06T09:49:23.105Z,14.77
2023-10-06T09:51:53.499Z,18.17
2023-10-06T09:54:21.783Z,14.60
2023-10-06T09:56:56.255Z,14.40
2023-10-06T09:59:26.256Z,16.20
2023-10-06T10:01:54.650Z,15.38
2023-10-06T10:04:25.448Z,13.68
2023-10-06T10:06:52.908Z,14.82
2023-10-06T10:09:22.347Z,12.90
2023-10-06T10:12:38.820Z,11.65
2023-10-06T10:15:38.841Z,13.23
2023-10-06T10:18:24.760Z,14.90
2023-10-06T10:20:53.075Z,10.93
2023-10-06T10:23:21.463Z,12.68
2023-10-06T10:25:48.842Z,13.32
2023-10-06T10:28:28.580Z,21.27
2023-10-06T10:31:01.328Z,10.68
2023-10-06T10:33:34.550Z,13.57
2023-10-06T10:36:13.861Z,11.50
2023-10-06T10:38:43.115Z,13.63
2023-10-06T10:41:13.219Z,11.20
2023-10-06T10:43:42.801Z,14.25
2023-10-06T10:46:10.944Z,13.57
2023-10-06T10:48:39.517Z,14.02
2023-10-06T10:51:14.480Z,15.45
2023-10-06T10:53:45.033Z,16.13
2023-10-06T10:56:27.838Z,13.80
2023-10-06T10:58:56.913Z,12.32
2023-10-06T11:01:39.998Z,12.63
2023-10-06T11:04:22.725Z,9.52
2023-10-06T11:06:50.983Z,12.18
2023-10-06T11:09:31.974Z,14.43
2023-10-06T11:12:22.676Z,13.38
2023-10-06T11:14:52.890Z,10.68
2023-10-06T11:17:30.936Z,11.25
2023-10-06T11:20:06.251Z,12.85
2023-10-06T11:22:34.501Z,15.98
2023-10-06T11:25:07.790Z,12.77
2023-10-06T11:27:35.434Z,14.07
2023-10-06T11:30:09.401Z,15.90
2023-10-06T11:32:36.877Z,12.68
2023-10-06T11:35:05.945Z,12.23
2023-10-06T11:37:34.431Z,11.20
2023-10-06T11:40:02.909Z,11.80
2023-10-06T11:42:31.515Z,13.23
2023-10-06T11:45:01.088Z,16.27
2023-10-06T11:47:30.073Z,13.60
2023-10-06T11:49:58.791Z,11.40
2023-10-06T11:52:28.162Z,13.48
2023-10-06T11:54:57.500Z,12.82
2023-10-06T11:57:46.372Z,12.38
2023-10-06T12:00:20.721Z,14.65
2023-10-06T12:02:52.713Z,10.40
2023-10-06T12:05:23.645Z,11.73
2023-10-06T12:07:51.524Z,16.15
2023-10-06T12:10:22.447Z,15.93
2023-10-06T12:12:53.484Z,14.07
2023-10-06T12:15:21.673Z,15.43
2023-10-06T12:17:49.131Z,16.77
2023-10-06T12:20:17.489Z,13.25
2023-10-06T12:22:46.062Z,11.38
2023-10-06T12:25:18.419Z,13.73
2023-10-06T12:27:46.209Z,13.80
2023-10-06T12:30:15.663Z,12.45
2023-10-06T12:32:43.230Z,12.45
2023-10-06T12:35:11.053Z,12.13
2023-10-06T12:37:42.911Z,11.85
2023-10-06T12:40:12.657Z,12.55
2023-10-06T12:42:40.611Z,14.27
2023-10-06T12:45:09.501Z,12.82
2023-10-06T12:47:39.921Z,12.80
2023-10-06T12:50:09.764Z,16.00
2023-10-06T12:52:38.398Z,13.65
2023-10-06T12:55:11.147Z,14.35
2023-10-06T12:57:39.755Z,11.15
2023-10-06T13:00:10.780Z,12.15
2023-10-06T13:02:39.389Z,11.90
2023-10-06T13:05:11.000Z,12.20
2023-10-06T13:07:40.866Z,12.77
2023-10-06T13:10:09.555Z,12.68
2023-10-06T13:12:43.419Z,12.63
2023-10-06T13:15:15.640Z,12.00
2023-10-06T13:17:43.218Z,12.43
2023-10-06T13:20:14.857Z,12.55
2023-10-06T13:22:43.878Z,11.63
2023-10-06T13:25:12.670Z,12.13
2023-10-06T13:27:50.657Z,11.32
2023-10-06T13:30:21.359Z,13.05
2023-10-06T13:32:53.773Z,9.98
2023-10-06T13:35:22.996Z,11.13
2023-10-06T13:37:50.642Z,11.50
2023-10-06T13:40:19.255Z,12.32
2023-10-06T13:42:48.933Z,11.48
2023-10-06T13:45:31.177Z,13.60
2023-10-06T13:48:04.414Z,13.10
2023-10-06T13:50:32.625Z,13.13
2023-10-06T13:53:00.015Z,13.15
2023-10-06T13:55:27.368Z,11.93
2023-10-06T13:57:59.552Z,12.15
2023-10-06T14:00:42.164Z,12.57
2023-10-06T14:03:13.626Z,12.38
2023-10-06T14:05:42.735Z,13.98
2023-10-06T14:08:15.471Z,13.88
2023-10-06T14:10:43.956Z,11.38
2023-10-06T14:13:17.366Z,14.38
2023-10-06T14:15:46.831Z,12.90
2023-10-06T14:18:15.284Z,13.98
2023-10-06T14:20:50.523Z,13.27
2023-10-06T14:23:25.263Z,12.13
2023-10-06T14:25:55.992Z,14.32
2023-10-06T14:28:24.393Z,12.40
2023-10-06T14:30:52.756Z,14.57
2023-10-06T14:33:24.740Z,11.57
2023-10-06T14:36:00.159Z,14.30
2023-10-06T14:38:33.185Z,12.18
2023-10-06T14:41:21.009Z,11.90
2023-10-06T14:44:11.497Z,13.13
2023-10-06T14:46:41.582Z,14.43
2023-10-06T14:49:14.371Z,13.13
2023-10-06T14:51:43.783Z,14.35
2023-10-06T14:54:12.498Z,12.80
2023-10-06T14:56:42.897Z,12.20
2023-10-06T14:59:11.443Z,11.73
2023-10-06T15:01:41.645Z,16.52
2023-10-06T15:04:14.397Z,12.00
2023-10-06T15:06:42.824Z,14.73
2023-10-06T15:09:19.139Z,12.43
2023-10-06T15:11:51.737Z,12.70
2023-10-06T15:14:26.549Z,13.40
2023-10-06T15:16:54.789Z,11.82
2023-10-06T15:19:26.692Z,12.15
2023-10-06T15:21:56.370Z,14.35
2023-10-06T15:24:24.094Z,14.13
2023-10-06T15:26:51.935Z,14.05
2023-10-06T15:29:21.318Z,10.80
2023-10-06T15:31:50.575Z,11.20
2023-10-06T15:34:18.982Z,13.40
2023-10-06T15:36:46.423Z,11.52
2023-10-06T15:39:20.067Z,12.38
2023-10-06T15:41:50.038Z,12.75
2023-10-06T15:44:20.194Z,14.05
2023-10-06T15:46:47.990Z,10.88
2023-10-06T15:49:20.305Z,12.05
2023-10-06T15:51:48.747Z,14.32
2023-10-06T15:54:21.497Z,12.85
2023-10-06T15:56:48.940Z,12.25
2023-10-06T15:59:17.547Z,13.18
2023-10-06T16:04:35.996Z,11.80
2023-10-06T16:07:04.658Z,10.73
2023-10-06T16:09:32.091Z,10.60
2023-10-06T16:11:59.465Z,15.93
2023-10-06T16:14:27.082Z,12.50
2023-10-06T16:16:54.501Z,14.63
2023-10-06T16:19:23.325Z,12.20
2023-10-06T16:21:52.724Z,14.57
2023-10-06T16:24:20.025Z,15.05
2023-10-06T16:26:47.429Z,14.88
2023-10-06T16:29:15.129Z,13.20
2023-10-06T16:31:42.698Z,13.30
2023-10-06T16:34:10.393Z,16.00
2023-10-06T16:36:40.166Z,15.55
2023-10-06T16:42:06.737Z,12.70
2023-10-06T16:44:34.346Z,17.23
2023-10-06T16:47:03.296Z,13.00
2023-10-06T16:49:30.619Z,14.57
2023-10-06T16:51:57.935Z,13.95
2023-10-06T16:54:25.140Z,14.98
2023-10-06T16:56:53.371Z,16.83
2023-10-06T16:59:21.161Z,15.05
2023-10-06T17:01:48.523Z,15.23
2023-10-06T17:04:19.541Z,13.23
2023-10-06T17:06:47.030Z,15.55
2023-10-06T17:09:20.141Z,16.40
2023-10-06T17:11:48.718Z,13.70
2023-10-06T17:14:16.016Z,13.48
2023-10-06T17:16:43.400Z,15.15
2023-10-06T17:19:13.576Z,17.42
2023-10-06T17:21:41.000Z,16.45
2023-10-06T17:24:11.995Z,14.25
2023-10-06T17:26:39.879Z,15.93
2023-10-06T17:29:08.617Z,19.70
2023-10-06T17:31:36.214Z,17.13
2023-10-06T17:34:03.650Z,15.27
2023-10-06T17:36:30.855Z,16.92
2023-10-06T17:39:03.397Z,16.25
2023-10-06T17:41:30.636Z,15.52
2023-10-06T17:43:58.574Z,16.85
2023-10-06T17:46:26.356Z,17.73
2023-10-06T17:48:54.950Z,17.95
2023-10-06T17:51:22.448Z,16.23
2023-10-06T17:53:50.927Z,15.80
2023-10-06T17:56:19.175Z,15.77
2023-10-06T17:58:47.139Z,21.33
2023-10-06T18:01:16.334Z,20.92
2023-10-06T18:03:44.182Z,20.42
2023-10-06T18:06:12.939Z,17.27
2023-10-06T18:08:40.305Z,14.95
2023-10-06T18:11:09.253Z,17.45
2023-10-06T18:13:37.877Z,17.02
2023-10-06T18:16:06.942Z,16.55
2023-10-06T18:18:34.610Z,16.33
2023-10-06T18:21:05.742Z,18.02
2023-10-06T18:23:32.992Z,22.23
2023-10-06T18:26:00.312Z,16.67
2023-10-06T18:28:27.698Z,17.27
2023-10-06T18:30:55.123Z,14.63
2023-10-06T18:33:22.578Z,17.23
2023-10-06T18:35:49.933Z,18.45
2023-10-06T18:38:17.587Z,17.10
2023-10-06T18:40:57.450Z,18.00
2023-10-06T18:43:25.678Z,17.83
2023-10-06T18:45:56.492Z,17.33
2023-10-06T18:48:24.772Z,19.23
2023-10-06T18:50:59.416Z,19.27
2023-10-06T18:53:27.036Z,17.83
2023-10-06T18:55:54.694Z,22.00
2023-10-06T18:58:22.259Z,15.93
2023-10-06T19:00:50.977Z,19.77
2023-10-06T19:03:23.952Z,17.67
2023-10-06T19:06:04.330Z,17.92
2023-10-06T19:08:37.057Z,20.60
2023-10-06T19:11:13.384Z,16.02
2023-10-06T19:13:41.700Z,18.42
2023-10-06T19:16:12.328Z,17.52
2023-10-06T19:18:40.421Z,17.83
2023-10-06T19:21:07.775Z,21.40
2023-10-06T19:23:35.996Z,18.38
2023-10-06T19:26:06.514Z,19.67
2023-10-06T19:28:34.369Z,18.17
2023-10-06T19:31:02.102Z,20.80
2023-10-06T19:33:32.332Z,22.52
2023-10-06T19:36:01.130Z,17.60
2023-10-06T19:38:28.694Z,18.85
2023-10-06T19:40:57.313Z,21.08
2023-10-06T19:43:25.327Z,19.42
2023-10-06T19:45:53.210Z,21.65
2023-10-06T19:48:21.563Z,19.85
2023-10-06T19:50:49.729Z,22.67
2023-10-06T19:53:17.349Z,19.52
2023-10-06T19:55:44.775Z,16.73
2023-10-06T19:58:13.220Z,17.20
2023-10-06T20:00:41.404Z,21.33
2023-10-06T20:03:09.935Z,16.42
2023-10-06T20:05:42.694Z,15.18
2023-10-06T20:08:10.081Z,18.67
2023-10-06T20:10:37.653Z,22.13
2023-10-06T20:13:08.570Z,16.85
2023-10-06T20:15:37.703Z,18.52
2023-10-06T20:18:05.385Z,16.13
2023-10-06T20:20:32.783Z,17.48
2023-10-06T20:23:00.292Z,16.08
2023-10-06T20:25:27.706Z,18.10
2023-10-06T20:27:55.577Z,17.52
2023-10-06T20:30:26.835Z,18.35
2023-10-06T20:32:57.774Z,20.70
2023-10-06T20:35:28.914Z,20.40
2023-10-06T20:37:56.772Z,21.93
2023-10-06T20:40:28.592Z,18.75
2023-10-06T20:42:57.012Z,22.13
2023-10-06T20:45:28.207Z,21.08
2023-10-06T20:47:56.914Z,20.35
2023-10-06T20:50:28.150Z,21.05
2023-10-06T20:52:55.876Z,24.43
2023-10-06T20:55:23.298Z,19.83
2023-10-06T20:57:51.227Z,18.60
2023-10-06T21:00:19.636Z,17.70
2023-10-06T21:02:48.230Z,20.30
2023-10-06T21:05:20.969Z,21.65
2023-10-06T21:07:49.684Z,17.80
2023-10-06T21:10:18.843Z,20.83
2023-10-06T21:12:46.336Z,19.10
2023-10-06T21:15:17.643Z,21.00
2023-10-06T21:17:48.615Z,19.75
2023-10-06T21:20:17.117Z,18.80
2023-10-06T21:22:44.769Z,21.45
2023-10-06T21:25:15.168Z,21.42
2023-10-06T21:27:43.217Z,24.25
2023-10-06T21:30:17.041Z,27.08
2023-10-06T21:32:46.119Z,23.85
2023-10-06T21:35:13.824Z,23.33
2023-10-06T21:37:41.181Z,24.05
2023-10-06T21:40:09.859Z,22.08
2023-10-06T21:42:37.115Z,31.30
2023-10-06T21:45:07.267Z,19.55
2023-10-06T21:47:34.785Z,19.98
2023-10-06T21:50:02.487Z,21.73
2023-10-06T21:52:30.333Z,25.50
2023-10-06T21:54:57.815Z,26.70
2023-10-06T21:57:26.682Z,22.67
2023-10-06T21:59:54.160Z,24.00
2023-10-06T22:02:22.668Z,18.20
2023-10-06T22:04:50.108Z,22.98
2023-10-06T22:07:17.373Z,24.08
2023-10-06T22:09:47.345Z,21.35
2023-10-06T22:12:14.632Z,22.65
2023-10-06T22:14:43.900Z,27.08
2023-10-06T22:17:14.197Z,23.20
2023-10-06T22:19:42.249Z,26.85
2023-10-06T22:22:11.539Z,23.48
2023-10-06T22:24:38.917Z,24.83
2023-10-06T22:27:08.375Z,29.30
2023-10-06T22:29:35.942Z,29.60
2023-10-06T22:32:05.314Z,26.60
2023-10-06T22:34:33.473Z,24.73
2023-10-06T22:37:05.435Z,24.45
2023-10-06T22:39:36.657Z,27.65
2023-10-06T22:42:05.104Z,27.10
2023-10-06T22:44:32.374Z,28.85
2023-10-06T22:46:59.683Z,21.63
2023-10-06T22:49:26.958Z,23.65
2023-10-06T22:51:54.748Z,25.27
2023-10-06T22:54:22.021Z,23.42
2023-10-06T22:56:49.277Z,29.08
2023-10-06T22:59:19.606Z,26.90
2023-10-06T23:01:47.983Z,24.77
2023-10-06T23:04:15.844Z,25.52
2023-10-06T23:06:43.696Z,25.98
2023-10-06T23:09:16.131Z,26.80
2023-10-06T23:11:45.707Z,27.17
2023-10-06T23:14:13.083Z,22.52
2023-10-06T23:16:42.461Z,22.95
2023-10-06T23:19:14.760Z,25.30
2023-10-06T23:21:47.813Z,33.67
2023-10-06T23:24:18.369Z,25.15
2023-10-06T23:26:45.640Z,19.48
2023-10-06T23:29:14.684Z,23.10
2023-10-06T23:31:42.066Z,21.88
2023-10-06T23:34:10.398Z,23.30
2023-10-06T23:36:38.125Z,21.00
2023-10-06T23:39:09.830Z,19.85
2023-10-06T23:41:38.845Z,19.63
2023-10-06T23:44:08.340Z,21.90
2023-10-06T23:46:36.031Z,22.13
2023-10-06T23:49:03.512Z,20.00
2023-10-06T23:51:33.829Z,20.88
2023-10-06T23:54:01.135Z,18.33
2023-10-06T23:56:32.227Z,17.25
2023-10-06T23:58:59.921Z,19.35
